Main page
METAR-TAF:

METAR-TAF

Airports :

Kirkwall, Scotland

Kirkwall Airport

latitude: 58-57N, longitude: 002-54W, elevation: 21 m

Current weather observation

The report was made 21 minutes ago, at 01:50 UTC
Wind 13 kt from the North/Northeast
Temperature 11°C
Humidity 82%
Pressure 1008 hPa
Visibility 10 km or more

METAR: EGPA 290150Z AUTO 03013KT 9999 BKN016/// 11/08 Q1008

Time: 03:11 (02:11 UTC)

Forecast

The report was made 3 hours and 12 minutes ago, at 22:59 UTC
Forecast valid from 29 at 00 UTC to 29 at 09 UTC
Wind 12 kt from the Northeast
Visibility 10 km or more
Scattered clouds at a height of 1500 ft
Broken clouds at a height of 2000 ft
Probability 40% :
Temporary
from 29 at 03 UTC to 29 at 06 UTC
Wind 16 kt from the North/Northeast with gusts up to 26 kt
Probability 40% :
Temporary
from 29 at 06 UTC to 29 at 09 UTC
Broken clouds at a height of 1200 ft

TAF: EGPA 282259Z 2900/2909 04012KT 9999 SCT015 BKN020 PROB40 TEMPO 2903/2906 03016G26KT PROB40 TEMPO 2906/2909 BKN012

Weather observations and forecasts of more than 4000 airports (METAR and TAF reports).

The available stations are represented by yellow and red dots on the map.

Hover mouse over dot to see the name of the station.

Then click to see weather observations and forecasts.

To change the map : click on the green buttons with a black cross to zoom in, on the green button with a dash to zoom out, or on the green arrows for adjacent maps.


METAR-TAF: